sensor_id;sensor_type;location;lat;lon;timestamp;P1;durP1;ratioP1;P2;durP2;ratioP2
10509;SDS011;5303;53.266;10.410;2022-09-27T00:01:03;4.53;;;2.50;;
10509;SDS011;5303;53.266;10.410;2022-09-27T00:03:30;2.63;;;2.33;;
10509;SDS011;5303;53.266;10.410;2022-09-27T00:09:03;4.00;;;2.67;;
10509;SDS011;5303;53.266;10.410;2022-09-27T00:11:29;4.50;;;2.83;;
10509;SDS011;5303;53.266;10.410;2022-09-27T00:13:58;4.20;;;2.87;;
10509;SDS011;5303;53.266;10.410;2022-09-27T00:16:31;3.17;;;2.63;;
10509;SDS011;5303;53.266;10.410;2022-09-27T00:18:59;4.57;;;2.80;;
10509;SDS011;5303;53.266;10.410;2022-09-27T00:21:25;6.37;;;3.00;;
10509;SDS011;5303;53.266;10.410;2022-09-27T00:23:51;3.67;;;2.70;;
10509;SDS011;5303;53.266;10.410;2022-09-27T00:26:16;3.20;;;2.90;;
10509;SDS011;5303;53.266;10.410;2022-09-27T00:28:41;3.67;;;3.07;;
10509;SDS011;5303;53.266;10.410;2022-09-27T00:31:14;4.57;;;3.20;;
10509;SDS011;5303;53.266;10.410;2022-09-27T00:33:53;4.97;;;3.20;;
10509;SDS011;5303;53.266;10.410;2022-09-27T00:36:19;3.40;;;2.60;;
10509;SDS011;5303;53.266;10.410;2022-09-27T00:38:46;6.33;;;3.00;;
10509;SDS011;5303;53.266;10.410;2022-09-27T00:41:12;4.23;;;2.57;;
10509;SDS011;5303;53.266;10.410;2022-09-27T00:43:53;4.63;;;2.90;;
10509;SDS011;5303;53.266;10.410;2022-09-27T00:46:30;5.77;;;3.47;;
10509;SDS011;5303;53.266;10.410;2022-09-27T00:49:07;3.43;;;3.03;;
10509;SDS011;5303;53.266;10.410;2022-09-27T00:51:42;4.50;;;3.30;;
10509;SDS011;5303;53.266;10.410;2022-09-27T00:54:11;4.40;;;3.20;;
10509;SDS011;5303;53.266;10.410;2022-09-27T00:56:38;3.40;;;3.10;;
10509;SDS011;5303;53.266;10.410;2022-09-27T00:59:06;5.80;;;3.53;;
10509;SDS011;5303;53.266;10.410;2022-09-27T01:01:35;3.87;;;3.47;;
10509;SDS011;5303;53.266;10.410;2022-09-27T01:04:10;3.70;;;3.40;;
10509;SDS011;5303;53.266;10.410;2022-09-27T01:06:38;4.17;;;3.17;;
10509;SDS011;5303;53.266;10.410;2022-09-27T01:09:07;5.90;;;3.47;;
10509;SDS011;5303;53.266;10.410;2022-09-27T01:17:03;3.90;;;3.30;;
10509;SDS011;5303;53.266;10.410;2022-09-27T01:22:04;3.30;;;2.90;;
10509;SDS011;5303;53.266;10.410;2022-09-27T01:24:44;6.03;;;3.13;;
10509;SDS011;5303;53.266;10.410;2022-09-27T01:30:31;4.30;;;3.00;;
10509;SDS011;5303;53.266;10.410;2022-09-27T01:33:09;3.63;;;3.03;;
10509;SDS011;5303;53.266;10.410;2022-09-27T01:38:23;2.87;;;2.60;;
10509;SDS011;5303;53.266;10.410;2022-09-27T01:43:54;4.87;;;3.00;;
10509;SDS011;5303;53.266;10.410;2022-09-27T01:46:26;3.70;;;3.00;;
10509;SDS011;5303;53.266;10.410;2022-09-27T01:48:59;3.77;;;2.70;;
10509;SDS011;5303;53.266;10.410;2022-09-27T01:51:31;3.07;;;2.77;;
10509;SDS011;5303;53.266;10.410;2022-09-27T01:54:03;4.77;;;3.23;;
10509;SDS011;5303;53.266;10.410;2022-09-27T01:56:34;3.30;;;2.83;;
10509;SDS011;5303;53.266;10.410;2022-09-27T02:01:33;4.10;;;3.27;;
10509;SDS011;5303;53.266;10.410;2022-09-27T02:04:01;4.03;;;3.13;;
10509;SDS011;5303;53.266;10.410;2022-09-27T02:06:30;4.90;;;2.63;;
10509;SDS011;5303;53.266;10.410;2022-09-27T02:09:05;3.13;;;2.80;;
10509;SDS011;5303;53.266;10.410;2022-09-27T02:11:37;4.03;;;3.00;;
10509;SDS011;5303;53.266;10.410;2022-09-27T02:14:14;6.03;;;3.10;;
10509;SDS011;5303;53.266;10.410;2022-09-27T02:16:53;3.57;;;3.20;;
10509;SDS011;5303;53.266;10.410;2022-09-27T02:19:26;6.47;;;3.40;;
10509;SDS011;5303;53.266;10.410;2022-09-27T02:25:01;3.73;;;3.20;;
10509;SDS011;5303;53.266;10.410;2022-09-27T02:28:12;3.40;;;3.10;;
10509;SDS011;5303;53.266;10.410;2022-09-27T02:30:36;6.17;;;3.60;;
10509;SDS011;5303;53.266;10.410;2022-09-27T02:33:01;4.30;;;3.10;;
10509;SDS011;5303;53.266;10.410;2022-09-27T02:35:28;3.10;;;2.90;;
10509;SDS011;5303;53.266;10.410;2022-09-27T02:37:56;3.67;;;3.37;;
10509;SDS011;5303;53.266;10.410;2022-09-27T02:40:22;3.83;;;3.17;;
10509;SDS011;5303;53.266;10.410;2022-09-27T02:42:48;4.40;;;3.20;;
10509;SDS011;5303;53.266;10.410;2022-09-27T02:45:15;5.63;;;3.13;;
10509;SDS011;5303;53.266;10.410;2022-09-27T02:47:48;5.43;;;3.37;;
10509;SDS011;5303;53.266;10.410;2022-09-27T02:50:29;5.20;;;3.33;;
10509;SDS011;5303;53.266;10.410;2022-09-27T02:53:08;4.67;;;3.20;;
10509;SDS011;5303;53.266;10.410;2022-09-27T02:58:38;3.40;;;3.10;;
10509;SDS011;5303;53.266;10.410;2022-09-27T03:03:43;4.27;;;3.10;;
10509;SDS011;5303;53.266;10.410;2022-09-27T03:06:15;6.40;;;3.17;;
10509;SDS011;5303;53.266;10.410;2022-09-27T03:08:42;4.47;;;3.40;;
10509;SDS011;5303;53.266;10.410;2022-09-27T03:11:08;4.70;;;3.10;;
10509;SDS011;5303;53.266;10.410;2022-09-27T03:13:34;4.30;;;3.10;;
10509;SDS011;5303;53.266;10.410;2022-09-27T03:16:02;4.13;;;3.50;;
10509;SDS011;5303;53.266;10.410;2022-09-27T03:18:28;4.50;;;3.50;;
10509;SDS011;5303;53.266;10.410;2022-09-27T03:20:53;3.93;;;3.53;;
10509;SDS011;5303;53.266;10.410;2022-09-27T03:23:19;3.60;;;3.30;;
10509;SDS011;5303;53.266;10.410;2022-09-27T03:25:45;6.70;;;3.40;;
10509;SDS011;5303;53.266;10.410;2022-09-27T03:28:10;4.43;;;3.47;;
10509;SDS011;5303;53.266;10.410;2022-09-27T03:30:35;4.53;;;3.57;;
10509;SDS011;5303;53.266;10.410;2022-09-27T03:33:01;4.23;;;3.40;;
10509;SDS011;5303;53.266;10.410;2022-09-27T03:35:26;4.67;;;3.80;;
10509;SDS011;5303;53.266;10.410;2022-09-27T03:37:52;4.23;;;3.50;;
10509;SDS011;5303;53.266;10.410;2022-09-27T03:40:17;4.10;;;3.70;;
10509;SDS011;5303;53.266;10.410;2022-09-27T03:42:42;4.67;;;4.10;;
10509;SDS011;5303;53.266;10.410;2022-09-27T03:45:08;5.17;;;3.90;;
10509;SDS011;5303;53.266;10.410;2022-09-27T03:47:33;4.10;;;3.70;;
10509;SDS011;5303;53.266;10.410;2022-09-27T03:49:59;3.97;;;3.57;;
10509;SDS011;5303;53.266;10.410;2022-09-27T03:52:24;3.93;;;3.53;;
10509;SDS011;5303;53.266;10.410;2022-09-27T03:54:49;6.17;;;3.97;;
10509;SDS011;5303;53.266;10.410;2022-09-27T03:57:15;4.10;;;3.80;;
10509;SDS011;5303;53.266;10.410;2022-09-27T03:59:40;4.80;;;3.50;;
10509;SDS011;5303;53.266;10.410;2022-09-27T04:02:05;4.23;;;3.33;;
10509;SDS011;5303;53.266;10.410;2022-09-27T04:04:31;3.67;;;3.23;;
10509;SDS011;5303;53.266;10.410;2022-09-27T04:06:57;5.40;;;3.87;;
10509;SDS011;5303;53.266;10.410;2022-09-27T04:09:23;5.23;;;3.60;;
10509;SDS011;5303;53.266;10.410;2022-09-27T04:11:48;5.47;;;3.70;;
10509;SDS011;5303;53.266;10.410;2022-09-27T04:14:13;4.00;;;3.47;;
10509;SDS011;5303;53.266;10.410;2022-09-27T04:16:39;4.33;;;3.93;;
10509;SDS011;5303;53.266;10.410;2022-09-27T04:19:06;3.80;;;3.40;;
10509;SDS011;5303;53.266;10.410;2022-09-27T04:21:32;3.90;;;3.50;;
10509;SDS011;5303;53.266;10.410;2022-09-27T04:23:58;4.63;;;4.20;;
10509;SDS011;5303;53.266;10.410;2022-09-27T04:26:23;3.80;;;3.47;;
10509;SDS011;5303;53.266;10.410;2022-09-27T04:28:49;6.63;;;3.83;;
10509;SDS011;5303;53.266;10.410;2022-09-27T04:31:16;5.80;;;4.13;;
10509;SDS011;5303;53.266;10.410;2022-09-27T04:33:41;4.40;;;4.00;;
10509;SDS011;5303;53.266;10.410;2022-09-27T04:36:08;4.40;;;3.87;;
10509;SDS011;5303;53.266;10.410;2022-09-27T04:38:51;4.30;;;3.90;;
10509;SDS011;5303;53.266;10.410;2022-09-27T04:41:17;5.40;;;3.90;;
10509;SDS011;5303;53.266;10.410;2022-09-27T04:43:43;4.30;;;3.90;;
10509;SDS011;5303;53.266;10.410;2022-09-27T04:46:08;4.30;;;3.50;;
10509;SDS011;5303;53.266;10.410;2022-09-27T04:48:33;4.67;;;3.90;;
10509;SDS011;5303;53.266;10.410;2022-09-27T04:50:59;5.13;;;3.90;;
10509;SDS011;5303;53.266;10.410;2022-09-27T04:53:29;5.63;;;4.50;;
10509;SDS011;5303;53.266;10.410;2022-09-27T04:55:54;4.50;;;4.10;;
10509;SDS011;5303;53.266;10.410;2022-09-27T04:58:21;4.80;;;4.17;;
10509;SDS011;5303;53.266;10.410;2022-09-27T05:00:47;5.07;;;4.57;;
10509;SDS011;5303;53.266;10.410;2022-09-27T05:03:13;6.53;;;4.40;;
10509;SDS011;5303;53.266;10.410;2022-09-27T05:05:39;4.57;;;4.17;;
10509;SDS011;5303;53.266;10.410;2022-09-27T05:08:05;5.00;;;4.03;;
10509;SDS011;5303;53.266;10.410;2022-09-27T05:10:30;5.20;;;4.70;;
10509;SDS011;5303;53.266;10.410;2022-09-27T05:12:56;5.20;;;4.70;;
10509;SDS011;5303;53.266;10.410;2022-09-27T05:15:21;5.80;;;4.43;;
10509;SDS011;5303;53.266;10.410;2022-09-27T05:17:48;7.83;;;4.97;;
10509;SDS011;5303;53.266;10.410;2022-09-27T05:20:15;5.37;;;4.87;;
10509;SDS011;5303;53.266;10.410;2022-09-27T05:22:40;5.27;;;4.70;;
10509;SDS011;5303;53.266;10.410;2022-09-27T05:25:06;5.50;;;4.90;;
10509;SDS011;5303;53.266;10.410;2022-09-27T05:27:31;5.37;;;4.87;;
10509;SDS011;5303;53.266;10.410;2022-09-27T05:29:57;5.47;;;4.97;;
10509;SDS011;5303;53.266;10.410;2022-09-27T05:32:25;6.00;;;5.50;;
10509;SDS011;5303;53.266;10.410;2022-09-27T05:34:51;6.07;;;5.00;;
10509;SDS011;5303;53.266;10.410;2022-09-27T05:37:18;6.70;;;5.53;;
10509;SDS011;5303;53.266;10.410;2022-09-27T05:39:43;5.77;;;5.00;;
10509;SDS011;5303;53.266;10.410;2022-09-27T05:42:08;7.90;;;5.77;;
10509;SDS011;5303;53.266;10.410;2022-09-27T05:44:34;5.43;;;4.90;;
10509;SDS011;5303;53.266;10.410;2022-09-27T05:47:00;6.93;;;5.80;;
10509;SDS011;5303;53.266;10.410;2022-09-27T05:49:28;6.17;;;4.83;;
10509;SDS011;5303;53.266;10.410;2022-09-27T05:51:53;6.20;;;5.27;;
10509;SDS011;5303;53.266;10.410;2022-09-27T05:54:18;7.33;;;5.23;;
10509;SDS011;5303;53.266;10.410;2022-09-27T05:56:44;5.93;;;5.00;;
10509;SDS011;5303;53.266;10.410;2022-09-27T05:59:09;5.93;;;5.23;;
10509;SDS011;5303;53.266;10.410;2022-09-27T06:01:34;7.97;;;4.80;;
10509;SDS011;5303;53.266;10.410;2022-09-27T06:04:00;6.07;;;4.13;;
10509;SDS011;5303;53.266;10.410;2022-09-27T06:06:27;7.83;;;4.97;;
10509;SDS011;5303;53.266;10.410;2022-09-27T06:08:52;4.20;;;3.80;;
10509;SDS011;5303;53.266;10.410;2022-09-27T06:11:17;5.60;;;4.63;;
10509;SDS011;5303;53.266;10.410;2022-09-27T06:13:43;6.37;;;5.13;;
10509;SDS011;5303;53.266;10.410;2022-09-27T06:16:09;7.83;;;5.90;;
10509;SDS011;5303;53.266;10.410;2022-09-27T06:18:35;6.13;;;5.00;;
10509;SDS011;5303;53.266;10.410;2022-09-27T06:21:01;4.40;;;4.00;;
10509;SDS011;5303;53.266;10.410;2022-09-27T06:23:28;5.07;;;4.03;;
10509;SDS011;5303;53.266;10.410;2022-09-27T06:25:59;5.67;;;4.07;;
10509;SDS011;5303;53.266;10.410;2022-09-27T06:28:26;4.43;;;3.93;;
10509;SDS011;5303;53.266;10.410;2022-09-27T06:30:51;3.60;;;3.30;;
10509;SDS011;5303;53.266;10.410;2022-09-27T06:33:17;4.37;;;3.73;;
10509;SDS011;5303;53.266;10.410;2022-09-27T06:35:44;6.37;;;3.70;;
10509;SDS011;5303;53.266;10.410;2022-09-27T06:38:11;4.40;;;4.00;;
10509;SDS011;5303;53.266;10.410;2022-09-27T06:40:39;4.93;;;4.40;;
10509;SDS011;5303;53.266;10.410;2022-09-27T06:43:06;6.70;;;4.60;;
10509;SDS011;5303;53.266;10.410;2022-09-27T06:45:33;7.03;;;4.87;;
10509;SDS011;5303;53.266;10.410;2022-09-27T06:48:03;5.20;;;4.70;;
10509;SDS011;5303;53.266;10.410;2022-09-27T06:50:31;7.20;;;4.70;;
10509;SDS011;5303;53.266;10.410;2022-09-27T06:52:57;7.00;;;5.40;;
10509;SDS011;5303;53.266;10.410;2022-09-27T06:55:23;6.30;;;5.17;;
10509;SDS011;5303;53.266;10.410;2022-09-27T06:57:52;7.47;;;5.63;;
10509;SDS011;5303;53.266;10.410;2022-09-27T07:00:37;6.63;;;5.10;;
10509;SDS011;5303;53.266;10.410;2022-09-27T07:03:02;7.00;;;5.37;;
10509;SDS011;5303;53.266;10.410;2022-09-27T07:05:28;7.37;;;5.63;;
10509;SDS011;5303;53.266;10.410;2022-09-27T07:07:54;5.90;;;5.30;;
10509;SDS011;5303;53.266;10.410;2022-09-27T07:10:23;5.83;;;5.03;;
10509;SDS011;5303;53.266;10.410;2022-09-27T07:12:49;6.43;;;5.03;;
10509;SDS011;5303;53.266;10.410;2022-09-27T07:15:16;6.07;;;5.00;;
10509;SDS011;5303;53.266;10.410;2022-09-27T07:17:43;5.53;;;4.97;;
10509;SDS011;5303;53.266;10.410;2022-09-27T07:20:08;6.00;;;4.83;;
10509;SDS011;5303;53.266;10.410;2022-09-27T07:22:40;6.63;;;5.00;;
10509;SDS011;5303;53.266;10.410;2022-09-27T07:25:09;5.90;;;4.57;;
10509;SDS011;5303;53.266;10.410;2022-09-27T07:27:35;6.63;;;4.13;;
10509;SDS011;5303;53.266;10.410;2022-09-27T07:30:01;6.07;;;5.10;;
10509;SDS011;5303;53.266;10.410;2022-09-27T07:32:26;6.73;;;4.70;;
10509;SDS011;5303;53.266;10.410;2022-09-27T07:34:52;5.57;;;4.27;;
10509;SDS011;5303;53.266;10.410;2022-09-27T07:37:17;5.07;;;3.90;;
10509;SDS011;5303;53.266;10.410;2022-09-27T07:39:42;4.40;;;3.90;;
10509;SDS011;5303;53.266;10.410;2022-09-27T07:42:08;3.77;;;3.13;;
10509;SDS011;5303;53.266;10.410;2022-09-27T07:44:33;4.63;;;3.10;;
10509;SDS011;5303;53.266;10.410;2022-09-27T07:46:59;5.03;;;3.63;;
10509;SDS011;5303;53.266;10.410;2022-09-27T07:49:24;5.30;;;3.40;;
10509;SDS011;5303;53.266;10.410;2022-09-27T07:51:49;4.73;;;3.63;;
10509;SDS011;5303;53.266;10.410;2022-09-27T07:54:15;4.50;;;3.13;;
10509;SDS011;5303;53.266;10.410;2022-09-27T07:56:40;3.87;;;3.20;;
10509;SDS011;5303;53.266;10.410;2022-09-27T07:59:06;4.67;;;3.07;;
10509;SDS011;5303;53.266;10.410;2022-09-27T08:01:31;3.00;;;2.70;;
10509;SDS011;5303;53.266;10.410;2022-09-27T08:03:58;3.43;;;2.70;;
10509;SDS011;5303;53.266;10.410;2022-09-27T08:06:23;4.07;;;2.30;;
10509;SDS011;5303;53.266;10.410;2022-09-27T08:08:49;3.47;;;2.70;;
10509;SDS011;5303;53.266;10.410;2022-09-27T08:11:15;2.20;;;1.80;;
10509;SDS011;5303;53.266;10.410;2022-09-27T08:13:43;2.07;;;1.87;;
10509;SDS011;5303;53.266;10.410;2022-09-27T08:16:09;3.47;;;1.70;;
10509;SDS011;5303;53.266;10.410;2022-09-27T08:18:35;2.17;;;1.30;;
10509;SDS011;5303;53.266;10.410;2022-09-27T08:21:00;1.50;;;1.40;;
10509;SDS011;5303;53.266;10.410;2022-09-27T08:23:26;2.33;;;1.70;;
10509;SDS011;5303;53.266;10.410;2022-09-27T08:25:52;2.50;;;1.67;;
10509;SDS011;5303;53.266;10.410;2022-09-27T08:28:17;1.50;;;1.40;;
10509;SDS011;5303;53.266;10.410;2022-09-27T08:30:43;1.80;;;1.40;;
10509;SDS011;5303;53.266;10.410;2022-09-27T08:33:08;1.80;;;1.20;;
10509;SDS011;5303;53.266;10.410;2022-09-27T08:35:33;1.70;;;1.60;;
10509;SDS011;5303;53.266;10.410;2022-09-27T08:37:59;2.27;;;1.60;;
10509;SDS011;5303;53.266;10.410;2022-09-27T08:40:44;2.73;;;1.40;;
10509;SDS011;5303;53.266;10.410;2022-09-27T08:46:00;2.13;;;1.50;;
10509;SDS011;5303;53.266;10.410;2022-09-27T08:48:35;1.67;;;1.30;;
10509;SDS011;5303;53.266;10.410;2022-09-27T08:51:02;2.97;;;1.53;;
10509;SDS011;5303;53.266;10.410;2022-09-27T08:53:36;1.23;;;1.13;;
10509;SDS011;5303;53.266;10.410;2022-09-27T08:56:06;2.30;;;1.40;;
10509;SDS011;5303;53.266;10.410;2022-09-27T08:58:48;2.73;;;1.40;;
10509;SDS011;5303;53.266;10.410;2022-09-27T09:01:17;2.40;;;1.60;;
10509;SDS011;5303;53.266;10.410;2022-09-27T09:03:46;3.13;;;1.70;;
10509;SDS011;5303;53.266;10.410;2022-09-27T09:11:57;1.67;;;1.50;;
10509;SDS011;5303;53.266;10.410;2022-09-27T09:14:57;1.50;;;1.40;;
10509;SDS011;5303;53.266;10.410;2022-09-27T09:17:32;2.53;;;1.70;;
10509;SDS011;5303;53.266;10.410;2022-09-27T09:20:11;2.03;;;1.83;;
10509;SDS011;5303;53.266;10.410;2022-09-27T09:25:58;2.13;;;1.50;;
10509;SDS011;5303;53.266;10.410;2022-09-27T09:34:08;1.60;;;1.50;;
10509;SDS011;5303;53.266;10.410;2022-09-27T09:36:39;2.10;;;1.40;;
10509;SDS011;5303;53.266;10.410;2022-09-27T09:39:18;1.53;;;1.43;;
10509;SDS011;5303;53.266;10.410;2022-09-27T09:44:33;1.40;;;1.30;;
10509;SDS011;5303;53.266;10.410;2022-09-27T09:47:12;2.20;;;1.43;;
10509;SDS011;5303;53.266;10.410;2022-09-27T09:49:43;2.80;;;1.50;;
10509;SDS011;5303;53.266;10.410;2022-09-27T09:52:15;1.50;;;1.40;;
10509;SDS011;5303;53.266;10.410;2022-09-27T09:57:22;2.00;;;1.80;;
10509;SDS011;5303;53.266;10.410;2022-09-27T10:02:38;2.87;;;1.87;;
10509;SDS011;5303;53.266;10.410;2022-09-27T10:05:06;2.53;;;2.10;;
10509;SDS011;5303;53.266;10.410;2022-09-27T10:07:37;2.87;;;2.00;;
10509;SDS011;5303;53.266;10.410;2022-09-27T10:10:04;3.30;;;2.20;;
10509;SDS011;5303;53.266;10.410;2022-09-27T10:12:31;3.07;;;2.20;;
10509;SDS011;5303;53.266;10.410;2022-09-27T10:14:58;3.63;;;2.00;;
10509;SDS011;5303;53.266;10.410;2022-09-27T10:17:26;2.10;;;1.83;;
10509;SDS011;5303;53.266;10.410;2022-09-27T10:19:59;2.13;;;1.90;;
10509;SDS011;5303;53.266;10.410;2022-09-27T10:22:36;2.53;;;2.33;;
10509;SDS011;5303;53.266;10.410;2022-09-27T10:25:04;4.60;;;3.00;;
10509;SDS011;5303;53.266;10.410;2022-09-27T10:32:57;3.20;;;2.90;;
10509;SDS011;5303;53.266;10.410;2022-09-27T10:35:36;3.90;;;3.17;;
10509;SDS011;5303;53.266;10.410;2022-09-27T10:40:40;3.23;;;2.60;;
10509;SDS011;5303;53.266;10.410;2022-09-27T10:43:27;2.60;;;2.40;;
10509;SDS011;5303;53.266;10.410;2022-09-27T10:48:40;2.90;;;2.60;;
10509;SDS011;5303;53.266;10.410;2022-09-27T10:51:17;5.10;;;2.60;;
10509;SDS011;5303;53.266;10.410;2022-09-27T10:53:48;2.60;;;2.40;;
10509;SDS011;5303;53.266;10.410;2022-09-27T10:56:33;2.80;;;2.60;;
10509;SDS011;5303;53.266;10.410;2022-09-27T10:58:59;2.57;;;2.33;;
10509;SDS011;5303;53.266;10.410;2022-09-27T11:01:37;2.60;;;2.40;;
10509;SDS011;5303;53.266;10.410;2022-09-27T11:04:05;3.50;;;2.50;;
10509;SDS011;5303;53.266;10.410;2022-09-27T11:06:31;2.10;;;1.90;;
10509;SDS011;5303;53.266;10.410;2022-09-27T11:11:52;2.03;;;1.90;;
10509;SDS011;5303;53.266;10.410;2022-09-27T11:14:33;3.10;;;2.20;;
10509;SDS011;5303;53.266;10.410;2022-09-27T11:17:09;3.13;;;2.00;;
10509;SDS011;5303;53.266;10.410;2022-09-27T11:42:32;2.30;;;1.80;;
10509;SDS011;5303;53.266;10.410;2022-09-27T11:45:39;2.27;;;2.00;;
10509;SDS011;5303;53.266;10.410;2022-09-27T11:48:19;6.17;;;2.20;;
10509;SDS011;5303;53.266;10.410;2022-09-27T11:56:40;2.80;;;2.00;;
10509;SDS011;5303;53.266;10.410;2022-09-27T11:59:30;2.10;;;1.90;;
10509;SDS011;5303;53.266;10.410;2022-09-27T12:02:17;2.05;;;1.85;;
10509;SDS011;5303;53.266;10.410;2022-09-27T12:05:08;1.93;;;1.70;;
10509;SDS011;5303;53.266;10.410;2022-09-27T12:10:31;3.63;;;2.10;;
10509;SDS011;5303;53.266;10.410;2022-09-27T12:13:00;3.10;;;2.17;;
10509;SDS011;5303;53.266;10.410;2022-09-27T12:15:27;2.33;;;2.10;;
10509;SDS011;5303;53.266;10.410;2022-09-27T12:17:58;2.80;;;2.30;;
10509;SDS011;5303;53.266;10.410;2022-09-27T12:20:34;3.27;;;2.50;;
10509;SDS011;5303;53.266;10.410;2022-09-27T12:25:29;2.13;;;1.93;;
10509;SDS011;5303;53.266;10.410;2022-09-27T12:28:02;2.57;;;1.90;;
10509;SDS011;5303;53.266;10.410;2022-09-27T12:30:33;2.73;;;1.97;;
10509;SDS011;5303;53.266;10.410;2022-09-27T12:35:59;2.50;;;2.10;;
10509;SDS011;5303;53.266;10.410;2022-09-27T12:41:17;4.33;;;2.40;;
10509;SDS011;5303;53.266;10.410;2022-09-27T12:43:47;3.63;;;2.87;;
10509;SDS011;5303;53.266;10.410;2022-09-27T12:57:37;3.70;;;2.70;;
10509;SDS011;5303;53.266;10.410;2022-09-27T13:08:08;2.87;;;2.50;;
10509;SDS011;5303;53.266;10.410;2022-09-27T13:10:51;3.07;;;2.43;;
10509;SDS011;5303;53.266;10.410;2022-09-27T13:13:22;3.30;;;2.40;;
10509;SDS011;5303;53.266;10.410;2022-09-27T13:15:51;3.30;;;2.10;;
10509;SDS011;5303;53.266;10.410;2022-09-27T13:20:59;2.33;;;2.13;;
10509;SDS011;5303;53.266;10.410;2022-09-27T13:31:05;2.88;;;1.90;;
10509;SDS011;5303;53.266;10.410;2022-09-27T13:41:27;3.70;;;2.00;;
10509;SDS011;5303;53.266;10.410;2022-09-27T13:46:44;2.23;;;1.97;;
10509;SDS011;5303;53.266;10.410;2022-09-27T13:49:18;3.30;;;2.43;;
10509;SDS011;5303;53.266;10.410;2022-09-27T13:51:45;2.43;;;2.23;;
10509;SDS011;5303;53.266;10.410;2022-09-27T13:56:59;2.87;;;2.13;;
10509;SDS011;5303;53.266;10.410;2022-09-27T14:02:11;2.90;;;2.00;;
10509;SDS011;5303;53.266;10.410;2022-09-27T14:04:45;3.07;;;1.87;;
10509;SDS011;5303;53.266;10.410;2022-09-27T14:07:13;2.73;;;2.10;;
10509;SDS011;5303;53.266;10.410;2022-09-27T14:09:43;2.17;;;1.97;;
10509;SDS011;5303;53.266;10.410;2022-09-27T14:12:15;2.87;;;2.30;;
10509;SDS011;5303;53.266;10.410;2022-09-27T14:14:43;2.73;;;2.20;;
10509;SDS011;5303;53.266;10.410;2022-09-27T14:17:11;3.33;;;2.17;;
10509;SDS011;5303;53.266;10.410;2022-09-27T14:19:37;2.30;;;2.10;;
10509;SDS011;5303;53.266;10.410;2022-09-27T14:22:10;2.10;;;1.90;;
10509;SDS011;5303;53.266;10.410;2022-09-27T14:29:57;2.43;;;1.70;;
10509;SDS011;5303;53.266;10.410;2022-09-27T14:32:30;3.20;;;1.70;;
10509;SDS011;5303;53.266;10.410;2022-09-27T14:35:02;2.10;;;1.70;;
10509;SDS011;5303;53.266;10.410;2022-09-27T14:37:27;1.87;;;1.70;;
10509;SDS011;5303;53.266;10.410;2022-09-27T14:40:04;2.57;;;2.10;;
10509;SDS011;5303;53.266;10.410;2022-09-27T14:42:35;2.43;;;2.20;;
10509;SDS011;5303;53.266;10.410;2022-09-27T14:45:21;2.67;;;2.33;;
10509;SDS011;5303;53.266;10.410;2022-09-27T14:47:51;2.57;;;2.37;;
10509;SDS011;5303;53.266;10.410;2022-09-27T14:50:18;4.60;;;2.77;;
10509;SDS011;5303;53.266;10.410;2022-09-27T14:52:47;4.77;;;2.50;;
10509;SDS011;5303;53.266;10.410;2022-09-27T14:55:18;3.23;;;2.50;;
10509;SDS011;5303;53.266;10.410;2022-09-27T14:57:46;3.10;;;2.60;;
10509;SDS011;5303;53.266;10.410;2022-09-27T15:03:00;3.10;;;2.60;;
10509;SDS011;5303;53.266;10.410;2022-09-27T15:05:29;3.90;;;2.70;;
10509;SDS011;5303;53.266;10.410;2022-09-27T15:07:57;3.50;;;2.23;;
10509;SDS011;5303;53.266;10.410;2022-09-27T15:10:26;3.00;;;2.70;;
10509;SDS011;5303;53.266;10.410;2022-09-27T15:12:55;6.47;;;2.70;;
10509;SDS011;5303;53.266;10.410;2022-09-27T15:15:26;5.90;;;2.70;;
10509;SDS011;5303;53.266;10.410;2022-09-27T15:17:55;5.10;;;2.60;;
10509;SDS011;5303;53.266;10.410;2022-09-27T15:20:32;3.00;;;2.47;;
10509;SDS011;5303;53.266;10.410;2022-09-27T15:22:59;4.00;;;2.50;;
10509;SDS011;5303;53.266;10.410;2022-09-27T15:25:27;3.03;;;2.47;;
10509;SDS011;5303;53.266;10.410;2022-09-27T15:27:59;3.17;;;2.73;;
10509;SDS011;5303;53.266;10.410;2022-09-27T15:30:35;5.13;;;3.13;;
10509;SDS011;5303;53.266;10.410;2022-09-27T15:33:06;4.33;;;3.10;;
10509;SDS011;5303;53.266;10.410;2022-09-27T15:35:46;3.37;;;2.87;;
10509;SDS011;5303;53.266;10.410;2022-09-27T15:38:29;3.87;;;2.93;;
10509;SDS011;5303;53.266;10.410;2022-09-27T15:43:32;5.10;;;3.40;;
10509;SDS011;5303;53.266;10.410;2022-09-27T15:46:00;5.93;;;3.47;;
10509;SDS011;5303;53.266;10.410;2022-09-27T15:48:31;4.37;;;3.70;;
10509;SDS011;5303;53.266;10.410;2022-09-27T15:50:59;4.93;;;4.47;;
10509;SDS011;5303;53.266;10.410;2022-09-27T15:55:59;4.40;;;4.00;;
10509;SDS011;5303;53.266;10.410;2022-09-27T15:58:26;4.67;;;3.70;;
10509;SDS011;5303;53.266;10.410;2022-09-27T16:00:56;6.47;;;3.90;;
10509;SDS011;5303;53.266;10.410;2022-09-27T16:03:24;4.37;;;3.47;;
10509;SDS011;5303;53.266;10.410;2022-09-27T16:05:51;3.80;;;3.40;;
10509;SDS011;5303;53.266;10.410;2022-09-27T16:08:20;5.90;;;4.40;;
10509;SDS011;5303;53.266;10.410;2022-09-27T16:10:55;4.33;;;3.53;;
10509;SDS011;5303;53.266;10.410;2022-09-27T16:13:23;4.77;;;3.90;;
10509;SDS011;5303;53.266;10.410;2022-09-27T16:15:49;5.37;;;4.10;;
10509;SDS011;5303;53.266;10.410;2022-09-27T16:18:15;4.80;;;3.47;;
10509;SDS011;5303;53.266;10.410;2022-09-27T16:20:41;5.67;;;3.40;;
10509;SDS011;5303;53.266;10.410;2022-09-27T16:23:06;4.13;;;3.33;;
10509;SDS011;5303;53.266;10.410;2022-09-27T16:25:32;7.97;;;4.03;;
10509;SDS011;5303;53.266;10.410;2022-09-27T16:28:01;9.27;;;5.80;;
10509;SDS011;5303;53.266;10.410;2022-09-27T16:30:28;7.07;;;4.03;;
10509;SDS011;5303;53.266;10.410;2022-09-27T16:32:54;6.93;;;4.90;;
10509;SDS011;5303;53.266;10.410;2022-09-27T16:35:20;7.57;;;3.83;;
10509;SDS011;5303;53.266;10.410;2022-09-27T16:37:46;4.15;;;3.70;;
10509;SDS011;5303;53.266;10.410;2022-09-27T16:40:12;7.00;;;3.50;;
10509;SDS011;5303;53.266;10.410;2022-09-27T16:42:39;4.70;;;3.57;;
10509;SDS011;5303;53.266;10.410;2022-09-27T16:45:05;5.87;;;3.63;;
10509;SDS011;5303;53.266;10.410;2022-09-27T16:47:31;5.00;;;3.57;;
10509;SDS011;5303;53.266;10.410;2022-09-27T16:49:57;3.63;;;3.33;;
10509;SDS011;5303;53.266;10.410;2022-09-27T16:52:41;4.47;;;3.37;;
10509;SDS011;5303;53.266;10.410;2022-09-27T16:55:07;4.87;;;3.80;;
10509;SDS011;5303;53.266;10.410;2022-09-27T16:57:33;5.40;;;3.60;;
10509;SDS011;5303;53.266;10.410;2022-09-27T16:59:59;4.83;;;3.60;;
10509;SDS011;5303;53.266;10.410;2022-09-27T17:02:25;6.80;;;5.43;;
10509;SDS011;5303;53.266;10.410;2022-09-27T17:04:51;7.40;;;4.90;;
10509;SDS011;5303;53.266;10.410;2022-09-27T17:07:17;4.03;;;3.63;;
10509;SDS011;5303;53.266;10.410;2022-09-27T17:09:42;6.13;;;3.40;;
10509;SDS011;5303;53.266;10.410;2022-09-27T17:12:08;4.77;;;2.90;;
10509;SDS011;5303;53.266;10.410;2022-09-27T17:14:33;4.40;;;2.87;;
10509;SDS011;5303;53.266;10.410;2022-09-27T17:16:58;3.77;;;3.10;;
10509;SDS011;5303;53.266;10.410;2022-09-27T17:19:24;7.73;;;4.93;;
10509;SDS011;5303;53.266;10.410;2022-09-27T17:21:49;5.30;;;3.50;;
10509;SDS011;5303;53.266;10.410;2022-09-27T17:24:15;5.53;;;2.90;;
10509;SDS011;5303;53.266;10.410;2022-09-27T17:26:41;3.40;;;2.80;;
10509;SDS011;5303;53.266;10.410;2022-09-27T17:29:08;4.93;;;3.30;;
10509;SDS011;5303;53.266;10.410;2022-09-27T17:31:35;3.30;;;2.97;;
10509;SDS011;5303;53.266;10.410;2022-09-27T17:34:02;4.40;;;4.07;;
10509;SDS011;5303;53.266;10.410;2022-09-27T17:36:28;4.50;;;4.10;;
10509;SDS011;5303;53.266;10.410;2022-09-27T17:38:58;8.17;;;7.37;;
10509;SDS011;5303;53.266;10.410;2022-09-27T17:41:24;8.57;;;7.77;;
10509;SDS011;5303;53.266;10.410;2022-09-27T17:43:54;6.90;;;4.43;;
10509;SDS011;5303;53.266;10.410;2022-09-27T17:46:25;4.77;;;3.60;;
10509;SDS011;5303;53.266;10.410;2022-09-27T17:48:55;4.68;;;2.78;;